| time (UTC) | temp C | wind direction | speed KPH | gust KPH | rain 1hr cm | rain 24hr cm | rain mn cm | humidity % | barometer mb |
| 20260905025100 | 15 | 240 | 11.3 | 0.0 | 0.00 | 0.00 | 0.00 | 82 | 1008.0 |
| 20260905024803 | 15 | 240 | 11.3 | 0.0 | 0.00 | 0.00 | 0.00 | 82 | 1008.0 |
| 20260905023302 | 13 | 240 | 14.5 | 0.0 | 0.00 | 0.00 | 0.00 | 87 | 1008.0 |
| 20260905023058 | 13 | 240 | 14.5 | 0.0 | 0.00 | 0.00 | 0.00 | 87 | 1008.0 |
| 20260905021804 | 13 | 240 | 14.5 | 0.0 | 0.00 | 0.00 | 0.00 | 87 | 1008.0 |
| 20260905021056 | 13 | 240 | 14.5 | 0.0 | 0.00 | 0.00 | 0.00 | 87 | 1008.0 |
| 20260905020301 | 13 | 240 | 14.5 | 0.0 | 0.00 | 0.00 | 0.00 | 87 | 1008.0 |
| 20260905015100 | 13 | 240 | 14.5 | 0.0 | 0.00 | 0.00 | 0.00 | 87 | 1008.0 |
| 20260905014803 | 13 | 240 | 14.5 | 0.0 | 0.00 | 0.00 | 0.00 | 87 | 1008.0 |
| 20260905013302 | 13 | 240 | 19.3 | 0.0 | 0.00 | 0.00 | 0.00 | 87 | 1008.0 |
| 20260905013058 | 13 | 240 | 19.3 | 0.0 | 0.00 | 0.00 | 0.00 | 87 | 1008.0 |
| 20260905011804 | 13 | 240 | 19.3 | 0.0 | 0.00 | 0.00 | 0.00 | 87 | 1008.0 |
| 20260905011056 | 13 | 250 | 20.9 | 0.0 | 0.00 | 0.00 | 0.00 | 87 | 1007.0 |
| 20260905010307 | 13 | 250 | 20.9 | 0.0 | 0.00 | 0.00 | 0.00 | 87 | 1007.0 |
| 20260905005100 | 13 | 250 | 20.9 | 0.0 | 0.00 | 0.00 | 0.00 | 87 | 1007.0 |
| 20260905004808 | 13 | 250 | 20.9 | 0.0 | 0.00 | 0.00 | 0.00 | 87 | 1007.0 |
| 20260905003303 | 13 | 250 | 19.3 | 0.0 | 0.00 | 0.00 | 0.00 | 87 | 1007.0 |
| 20260905003058 | 13 | 250 | 19.3 | 0.0 | 0.00 | 0.00 | 0.00 | 87 | 1007.0 |
| 20260905001803 | 13 | 250 | 19.3 | 0.0 | 0.00 | 0.00 | 0.00 | 87 | 1007.0 |
| 20260905001056 | 15 | 260 | 22.5 | 0.0 | 0.00 | 0.00 | 0.00 | 82 | 1007.0 |
| 20260905000303 | 15 | 260 | 22.5 | 0.0 | 0.00 | 0.00 | 0.00 | 82 | 1007.0 |
| 20260904235100 | 15 | 260 | 22.5 | 0.0 | 0.00 | 0.00 | 0.00 | 82 | 1007.0 |
| 20260904234803 | 15 | 260 | 22.5 | 0.0 | 0.00 | 0.00 | 0.00 | 82 | 1007.0 |
| 20260904233301 | 13 | 260 | 20.9 | 0.0 | 0.00 | 0.00 | 0.00 | 87 | 1006.0 |
| 20260904233058 | 13 | 260 | 20.9 | 0.0 | 0.00 | 0.00 | 0.00 | 87 | 1006.0 |
| 20260904231804 | 13 | 260 | 20.9 | 0.0 | 0.00 | 0.00 | 0.00 | 87 | 1006.0 |
| 20260904231056 | 15 | 260 | 22.5 | 0.0 | 0.00 | 0.00 | 0.00 | 87 | 1006.0 |
| 20260904230301 | 15 | 260 | 22.5 | 0.0 | 0.00 | 0.00 | 0.00 | 87 | 1006.0 |
| 20260904225058 | 15 | 260 | 22.5 | 0.0 | 0.00 | 0.00 | 0.00 | 87 | 1006.0 |
| 20260904224803 | 15 | 260 | 22.5 | 0.0 | 0.00 | 0.00 | 0.00 | 87 | 1006.0 |
| 20260904223301 | 16 | 260 | 20.9 | 0.0 | 0.00 | 0.00 | 0.00 | 87 | 1005.0 |
| 20260904223057 | 16 | 260 | 20.9 | 0.0 | 0.00 | 0.00 | 0.00 | 87 | 1005.0 |
| 20260904221809 | 16 | 260 | 20.9 | 0.0 | 0.00 | 0.00 | 0.00 | 87 | 1005.0 |
| 20260904221055 | 16 | 260 | 27.4 | 0.0 | 0.00 | 0.00 | 0.00 | 93 | 1005.0 |
| 20260904220301 | 16 | 260 | 27.4 | 0.0 | 0.00 | 0.00 | 0.00 | 93 | 1005.0 |
| 20260904215105 | 16 | 260 | 27.4 | 0.0 | 0.00 | 0.00 | 0.00 | 93 | 1005.0 |
| 20260904214802 | 16 | 260 | 27.4 | 0.0 | 0.00 | 0.00 | 0.00 | 93 | 1005.0 |
| 20260904213305 | 16 | 260 | 19.3 | 0.0 | 0.00 | 0.00 | 0.00 | 93 | 1005.0 |
| 20260904213104 | 16 | 260 | 19.3 | 0.0 | 0.00 | 0.00 | 0.00 | 93 | 1005.0 |
| 20260904211803 | 16 | 260 | 19.3 | 0.0 | 0.00 | 0.00 | 0.00 | 93 | 1005.0 |
| 20260904211102 | 17 | 270 | 33.8 | 53.1 | 0.00 | 0.00 | 0.00 | 88 | 1004.0 |
| 20260904210301 | 17 | 270 | 33.8 | 53.1 | 0.00 | 0.00 | 0.00 | 88 | 1004.0 |
| 20260904205059 | 17 | 270 | 33.8 | 53.1 | 0.00 | 0.00 | 0.00 | 88 | 1004.0 |
| 20260904204802 | 17 | 270 | 33.8 | 53.1 | 0.00 | 0.00 | 0.00 | 88 | 1004.0 |
| 20260904203300 | 17 | 260 | 19.3 | 0.0 | 0.00 | 0.00 | 0.00 | 93 | 1004.0 |
| 20260904203057 | 17 | 260 | 19.3 | 0.0 | 0.00 | 0.00 | 0.00 | 93 | 1004.0 |
| 20260904201803 | 17 | 260 | 19.3 | 0.0 | 0.00 | 0.00 | 0.00 | 93 | 1004.0 |
| 20260904201056 | 17 | 280 | 19.3 | 0.0 | 0.00 | 0.00 | 0.00 | 93 | 1003.0 |
| 20260904200301 | 17 | 280 | 19.3 | 0.0 | 0.00 | 0.00 | 0.00 | 93 | 1003.0 |
| 20260904195057 | 17 | 280 | 19.3 | 0.0 | 0.00 | 0.00 | 0.00 | 93 | 1003.0 |
| 20260904194803 | 17 | 280 | 19.3 | 0.0 | 0.00 | 0.00 | 0.00 | 93 | 1003.0 |
| 20260904193306 | 17 | 250 | 4.8 | 0.0 | 0.00 | 0.00 | 0.00 | 93 | 1003.0 |
| 20260904193056 | 17 | 250 | 4.8 | 0.0 | 0.00 | 0.00 | 0.00 | 93 | 1003.0 |
| 20260904191803 | 17 | 250 | 4.8 | 0.0 | 0.00 | 0.00 | 0.00 | 93 | 1003.0 |
| 20260904191054 | 17 | 240 | 9.7 | 0.0 | 0.00 | 0.00 | 0.00 | 93 | 1003.0 |
| 20260904190303 | 17 | 240 | 9.7 | 0.0 | 0.00 | 0.00 | 0.00 | 93 | 1003.0 |
| 20260904185058 | 17 | 240 | 9.7 | 0.0 | 0.00 | 0.00 | 0.00 | 93 | 1003.0 |
| 20260904184802 | 17 | 240 | 9.7 | 0.0 | 0.00 | 0.00 | 0.00 | 93 | 1003.0 |
| 20260904183300 | 17 | 240 | 12.9 | 0.0 | 0.00 | 0.00 | 0.00 | 93 | 1003.0 |
| 20260904183056 | 17 | 240 | 12.9 | 0.0 | 0.00 | 0.00 | 0.00 | 93 | 1003.0 |
| 20260904181803 | 17 | 240 | 12.9 | 0.0 | 0.00 | 0.00 | 0.00 | 93 | 1003.0 |
| 20260904181055 | 17 | 220 | 9.7 | 0.0 | 0.00 | 0.00 | 0.00 | 93 | 1003.0 |
| 20260904180301 | 17 | 220 | 9.7 | 0.0 | 0.00 | 0.00 | 0.00 | 93 | 1003.0 |
| 20260904175058 | 17 | 220 | 9.7 | 0.0 | 0.00 | 0.00 | 0.00 | 93 | 1003.0 |
| 20260904174803 | 17 | 220 | 9.7 | 0.0 | 0.00 | 0.00 | 0.00 | 93 | 1003.0 |
| 20260904173302 | 17 | 240 | 16.1 | 0.0 | 0.00 | 0.00 | 0.00 | 93 | 1003.0 |
| 20260904173056 | 17 | 240 | 16.1 | 0.0 | 0.00 | 0.00 | 0.00 | 93 | 1003.0 |
| 20260904171803 | 17 | 240 | 16.1 | 0.0 | 0.00 | 0.00 | 0.00 | 93 | 1003.0 |
| 20260904171055 | 17 | 250 | 19.3 | 0.0 | 0.00 | 0.00 | 0.00 | 93 | 1003.0 |
| 20260904170303 | 17 | 250 | 19.3 | 0.0 | 0.00 | 0.00 | 0.00 | 93 | 1003.0 |
| 20260904165059 | 17 | 250 | 19.3 | 0.0 | 0.00 | 0.00 | 0.00 | 93 | 1003.0 |
| 20260904164803 | 17 | 250 | 19.3 | 0.0 | 0.00 | 0.00 | 0.00 | 93 | 1003.0 |
| 20260904163302 | 17 | 230 | 14.5 | 0.0 | 0.00 | 0.00 | 0.00 | 93 | 1002.0 |
| 20260904163057 | 17 | 230 | 14.5 | 0.0 | 0.00 | 0.00 | 0.00 | 93 | 1002.0 |
| 20260904161803 | 17 | 230 | 14.5 | 0.0 | 0.00 | 0.00 | 0.00 | 93 | 1002.0 |
| 20260904161056 | 17 | 240 | 12.9 | 0.0 | 0.00 | 0.00 | 0.00 | 100 | 1002.0 |
| 20260904160302 | 17 | 240 | 12.9 | 0.0 | 0.00 | 0.00 | 0.00 | 100 | 1002.0 |
| 20260904155059 | 17 | 240 | 12.9 | 0.0 | 0.00 | 0.00 | 0.00 | 100 | 1002.0 |
| 20260904154804 | 17 | 240 | 12.9 | 0.0 | 0.00 | 0.00 | 0.00 | 100 | 1002.0 |
| 20260904153303 | 17 | 250 | 12.9 | 0.0 | 0.00 | 0.00 | 0.00 | 100 | 1002.0 |
| 20260904153058 | 17 | 250 | 12.9 | 0.0 | 0.00 | 0.00 | 0.00 | 100 | 1002.0 |
| 20260904151803 | 17 | 250 | 12.9 | 0.0 | 0.00 | 0.00 | 0.00 | 100 | 1002.0 |
| 20260904151056 | 17 | 300 | 37.0 | 0.0 | 0.00 | 0.00 | 0.00 | 100 | 1002.0 |
| 20260904150300 | 17 | 300 | 37.0 | 0.0 | 0.00 | 0.00 | 0.00 | 100 | 1002.0 |
| 20260904145105 | 17 | 300 | 37.0 | 0.0 | 0.00 | 0.00 | 0.00 | 100 | 1002.0 |
| 20260904144801 | 17 | 300 | 37.0 | 0.0 | 0.00 | 0.00 | 0.00 | 100 | 1002.0 |
| 20260904143301 | 21 | 200 | 22.5 | 0.0 | 0.00 | 0.00 | 0.00 | 82 | 1000.0 |
| 20260904143103 | 21 | 200 | 22.5 | 0.0 | 0.00 | 0.00 | 0.00 | 82 | 1000.0 |
| 20260904141803 | 21 | 200 | 22.5 | 0.0 | 0.00 | 0.00 | 0.00 | 82 | 1000.0 |
| 20260904141102 | 21 | 200 | 22.5 | 0.0 | 0.00 | 0.00 | 0.00 | 82 | 1000.0 |
| 20260904140303 | 21 | 200 | 22.5 | 0.0 | 0.00 | 0.00 | 0.00 | 82 | 1000.0 |
| 20260904135058 | 21 | 200 | 22.5 | 0.0 | 0.00 | 0.00 | 0.00 | 82 | 1000.0 |
| 20260904134802 | 21 | 200 | 22.5 | 0.0 | 0.00 | 0.00 | 0.00 | 82 | 1000.0 |
| 20260904133301 | 18 | 180 | 14.5 | 0.0 | 0.00 | 0.00 | 0.00 | 100 | 1001.0 |
| 20260904133056 | 18 | 180 | 14.5 | 0.0 | 0.00 | 0.00 | 0.00 | 100 | 1001.0 |
| 20260904131803 | 18 | 180 | 14.5 | 0.0 | 0.00 | 0.00 | 0.00 | 100 | 1001.0 |
| 20260904131055 | 17 | 140 | 4.8 | 0.0 | 0.00 | 0.00 | 0.00 | 100 | 1002.0 |
| 20260904130301 | 17 | 140 | 4.8 | 0.0 | 0.00 | 0.00 | 0.00 | 100 | 1002.0 |
| 20260904125058 | 17 | 140 | 4.8 | 0.0 | 0.00 | 0.00 | 0.00 | 100 | 1002.0 |
| 20260904124803 | 17 | 140 | 4.8 | 0.0 | 0.00 | 0.00 | 0.00 | 100 | 1002.0 |
| 20260904123301 | 17 | 250 | 11.3 | 0.0 | 0.00 | 0.00 | 0.00 | 100 | 1003.0 |
| 20260904123056 | 17 | 250 | 11.3 | 0.0 | 0.00 | 0.00 | 0.00 | 100 | 1003.0 |
| 20260904121803 | 17 | 250 | 11.3 | 0.0 | 0.00 | 0.00 | 0.00 | 100 | 1003.0 |
| 20260904121055 | 17 | 140 | 22.5 | 0.0 | 0.00 | 0.00 | 0.00 | 100 | 1003.0 |
| 20260904120300 | 17 | 140 | 22.5 | 0.0 | 0.00 | 0.00 | 0.00 | 100 | 1003.0 |
| 20260904115057 | 17 | 140 | 22.5 | 0.0 | 0.00 | 0.00 | 0.00 | 100 | 1003.0 |
| 20260904114801 | 17 | 140 | 22.5 | 0.0 | 0.00 | 0.00 | 0.00 | 100 | 1003.0 |
| 20260904113301 | 16 | 140 | 16.1 | 0.0 | 0.00 | 0.00 | 0.00 | 100 | 1004.0 |
| 20260904113056 | 16 | 140 | 16.1 | 0.0 | 0.00 | 0.00 | 0.00 | 100 | 1004.0 |
| 20260904111803 | 16 | 140 | 16.1 | 0.0 | 0.00 | 0.00 | 0.00 | 100 | 1004.0 |
| 20260904111054 | 16 | 150 | 14.5 | 0.0 | 0.00 | 0.00 | 0.00 | 100 | 1006.0 |
| 20260904110300 | 16 | 150 | 14.5 | 0.0 | 0.00 | 0.00 | 0.00 | 100 | 1006.0 |
| 20260904105058 | 16 | 150 | 14.5 | 0.0 | 0.00 | 0.00 | 0.00 | 100 | 1006.0 |
| 20260904104805 | 16 | 150 | 14.5 | 0.0 | 0.00 | 0.00 | 0.00 | 100 | 1006.0 |
| 20260904103301 | 16 | 160 | 16.1 | 0.0 | 0.00 | 0.00 | 0.00 | 100 | 1006.0 |
| 20260904103057 | 16 | 160 | 16.1 | 0.0 | 0.00 | 0.00 | 0.00 | 100 | 1006.0 |
| 20260904101802 | 16 | 160 | 16.1 | 0.0 | 0.00 | 0.00 | 0.00 | 100 | 1006.0 |
| 20260904101055 | 15 | 170 | 11.3 | 0.0 | 0.00 | 0.00 | 0.00 | 100 | 1007.0 |
| 20260904100300 | 15 | 170 | 11.3 | 0.0 | 0.00 | 0.00 | 0.00 | 100 | 1007.0 |
| 20260904095059 | 15 | 170 | 11.3 | 0.0 | 0.00 | 0.00 | 0.00 | 100 | 1007.0 |
| 20260904094801 | 15 | 170 | 11.3 | 0.0 | 0.00 | 0.00 | 0.00 | 100 | 1007.0 |
| 20260904093301 | 16 | 180 | 12.9 | 0.0 | 0.00 | 0.00 | 0.00 | 87 | 1007.0 |
| 20260904093057 | 16 | 180 | 12.9 | 0.0 | 0.00 | 0.00 | 0.00 | 87 | 1007.0 |
| 20260904091802 | 16 | 180 | 12.9 | 0.0 | 0.00 | 0.00 | 0.00 | 87 | 1007.0 |
| 20260904091055 | 17 | 170 | 12.9 | 0.0 | 0.00 | 0.00 | 0.00 | 93 | 1008.0 |
| 20260904090300 | 17 | 170 | 12.9 | 0.0 | 0.00 | 0.00 | 0.00 | 93 | 1008.0 |
| 20260904085058 | 17 | 170 | 12.9 | 0.0 | 0.00 | 0.00 | 0.00 | 93 | 1008.0 |
| 20260904084801 | 17 | 170 | 12.9 | 0.0 | 0.00 | 0.00 | 0.00 | 93 | 1008.0 |
| 20260904083300 | 17 | 180 | 11.3 | 0.0 | 0.00 | 0.00 | 0.00 | 93 | 1008.0 |
| 20260904083057 | 17 | 180 | 11.3 | 0.0 | 0.00 | 0.00 | 0.00 | 93 | 1008.0 |
| 20260904081802 | 17 | 180 | 11.3 | 0.0 | 0.00 | 0.00 | 0.00 | 93 | 1008.0 |
| 20260904081055 | 17 | 180 | 11.3 | 0.0 | 0.00 | 0.00 | 0.00 | 93 | 1009.0 |
| 20260904080300 | 17 | 180 | 11.3 | 0.0 | 0.00 | 0.00 | 0.00 | 93 | 1009.0 |
| 20260904075059 | 17 | 180 | 11.3 | 0.0 | 0.00 | 0.00 | 0.00 | 93 | 1009.0 |
| 20260904074802 | 17 | 180 | 11.3 | 0.0 | 0.00 | 0.00 | 0.00 | 93 | 1009.0 |
| 20260904073301 | 17 | 200 | 9.7 | 0.0 | 0.00 | 0.00 | 0.00 | 88 | 1009.0 |
| 20260904073057 | 17 | 200 | 9.7 | 0.0 | 0.00 | 0.00 | 0.00 | 88 | 1009.0 |
| 20260904071803 | 17 | 200 | 9.7 | 0.0 | 0.00 | 0.00 | 0.00 | 88 | 1009.0 |
| 20260904071055 | 17 | 190 | 9.7 | 0.0 | 0.00 | 0.00 | 0.00 | 88 | 1009.0 |
| 20260904070441 | 17 | 190 | 9.7 | 0.0 | 0.00 | 0.00 | 0.00 | 88 | 1009.0 |
| 20260904070300 | 17 | 190 | 9.7 | 0.0 | 0.00 | 0.00 | 0.00 | 88 | 1009.0 |
| 20260904064801 | 17 | 190 | 9.7 | 0.0 | 0.00 | 0.00 | 0.00 | 88 | 1009.0 |
| 20260904064439 | 16 | 190 | 8.0 | 0.0 | 0.00 | 0.00 | 0.00 | 93 | 1010.0 |
| 20260904063301 | 16 | 190 | 8.0 | 0.0 | 0.00 | 0.00 | 0.00 | 93 | 1010.0 |
| 20260904063056 | 16 | 190 | 8.0 | 0.0 | 0.00 | 0.00 | 0.00 | 93 | 1010.0 |
| 20260904061802 | 16 | 190 | 8.0 | 0.0 | 0.00 | 0.00 | 0.00 | 93 | 1010.0 |
| 20260904061054 | 15 | 0.0 | 0.0 | 0.00 | 0.00 | 0.00 | 100 | 1010.0 | |
| 20260904060300 | 15 | 0.0 | 0.0 | 0.00 | 0.00 | 0.00 | 100 | 1010.0 | |
| 20260904055059 | 15 | 0.0 | 0.0 | 0.00 | 0.00 | 0.00 | 100 | 1010.0 | |
| 20260904054802 | 15 | 0.0 | 0.0 | 0.00 | 0.00 | 0.00 | 100 | 1010.0 | |
| 20260904053300 | 15 | 200 | 4.8 | 0.0 | 0.00 | 0.00 | 0.00 | 93 | 1010.0 |
| 20260904053057 | 15 | 200 | 4.8 | 0.0 | 0.00 | 0.00 | 0.00 | 93 | 1010.0 |
| 20260904051802 | 15 | 200 | 4.8 | 0.0 | 0.00 | 0.00 | 0.00 | 93 | 1010.0 |
| 20260904051055 | 13 | 250 | 11.3 | 0.0 | 0.00 | 0.00 | 0.00 | 100 | 1010.0 |
| 20260904050441 | 13 | 250 | 11.3 | 0.0 | 0.00 | 0.00 | 0.00 | 100 | 1010.0 |
| 20260904050300 | 13 | 250 | 11.3 | 0.0 | 0.00 | 0.00 | 0.00 | 100 | 1010.0 |
| 20260904044801 | 13 | 250 | 11.3 | 0.0 | 0.00 | 0.00 | 0.00 | 100 | 1010.0 |
| 20260904044439 | 15 | 270 | 16.1 | 0.0 | 0.00 | 0.00 | 0.00 | 93 | 1010.0 |
| 20260904043301 | 15 | 270 | 16.1 | 0.0 | 0.00 | 0.00 | 0.00 | 93 | 1010.0 |
| 20260904041802 | 15 | 270 | 16.1 | 0.0 | 0.00 | 0.00 | 0.00 | 93 | 1010.0 |
| 20260904041055 | 17 | 240 | 11.3 | 0.0 | 0.00 | 0.00 | 0.00 | 88 | 1011.0 |
| 20260904040301 | 17 | 240 | 11.3 | 0.0 | 0.00 | 0.00 | 0.00 | 88 | 1011.0 |
| 20260904035058 | 17 | 240 | 11.3 | 0.0 | 0.00 | 0.00 | 0.00 | 88 | 1011.0 |
| 20260904034803 | 17 | 240 | 11.3 | 0.0 | 0.00 | 0.00 | 0.00 | 88 | 1011.0 |
| 20260904033301 | 17 | 230 | 12.9 | 0.0 | 0.00 | 0.00 | 0.00 | 88 | 1010.0 |
| 20260904033057 | 17 | 230 | 12.9 | 0.0 | 0.00 | 0.00 | 0.00 | 88 | 1010.0 |
| 20260904031803 | 17 | 230 | 12.9 | 0.0 | 0.00 | 0.00 | 0.00 | 88 | 1010.0 |
| 20260904031055 | 17 | 230 | 11.3 | 0.0 | 0.00 | 0.00 | 0.00 | 88 | 1010.0 |
| 20260904030300 | 17 | 230 | 11.3 | 0.0 | 0.00 | 0.00 | 0.00 | 88 | 1010.0 |